createdAt,value
2019-02-09T00:00:56.616Z,76.23
2019-02-09T00:03:25.074Z,72.50
2019-02-09T00:05:53.472Z,84.77
2019-02-09T00:08:21.943Z,82.80
2019-02-09T00:10:50.453Z,74.40
2019-02-09T00:13:18.842Z,74.93
2019-02-09T00:15:47.306Z,79.23
2019-02-09T00:18:15.736Z,67.93
2019-02-09T00:20:44.135Z,63.53
2019-02-09T00:23:12.546Z,60.13
2019-02-09T00:25:41.004Z,57.07
2019-02-09T00:28:09.485Z,58.00
2019-02-09T00:30:37.888Z,59.57
2019-02-09T00:33:06.325Z,56.93
2019-02-09T00:35:34.743Z,57.80
2019-02-09T00:38:03.291Z,61.47
2019-02-09T00:40:31.716Z,42.60
2019-02-09T00:43:00.466Z,42.97
2019-02-09T00:45:28.938Z,44.07
2019-02-09T00:47:57.372Z,50.23
2019-02-09T00:50:25.927Z,49.73
2019-02-09T00:52:54.390Z,44.73
2019-02-09T00:55:24.386Z,45.67
2019-02-09T00:57:53.077Z,49.73
2019-02-09T01:00:26.108Z,76.10
2019-02-09T01:02:55.590Z,65.07
2019-02-09T01:05:35.799Z,56.97
2019-02-09T01:08:04.897Z,47.30
2019-02-09T01:10:33.558Z,43.27
2019-02-09T01:13:01.939Z,44.53
2019-02-09T01:15:30.415Z,41.07
2019-02-09T01:17:58.815Z,47.10
2019-02-09T01:20:30.396Z,39.57
2019-02-09T01:22:59.446Z,39.57
2019-02-09T01:25:27.869Z,35.87
2019-02-09T01:27:56.276Z,34.27
2019-02-09T01:30:27.340Z,33.87
2019-02-09T01:32:56.005Z,32.07
2019-02-09T01:35:24.690Z,30.70
2019-02-09T01:37:53.187Z,27.63
2019-02-09T01:40:23.318Z,28.00
2019-02-09T01:42:51.733Z,29.47
2019-02-09T01:45:33.610Z,31.97
2019-02-09T01:48:02.007Z,28.63
2019-02-09T01:50:32.135Z,27.73
2019-02-09T01:53:00.632Z,29.50
2019-02-09T01:55:29.613Z,27.73
2019-02-09T01:57:58.650Z,29.97
2019-02-09T02:00:33.219Z,28.30
2019-02-09T02:03:01.884Z,29.77
2019-02-09T02:05:31.206Z,28.90
2019-02-09T02:07:59.700Z,27.47
2019-02-09T02:10:30.590Z,26.30
2019-02-09T02:12:59.392Z,25.37
2019-02-09T02:15:28.309Z,25.83
2019-02-09T02:17:56.695Z,28.20
2019-02-09T02:20:27.238Z,32.07
2019-02-09T02:22:55.666Z,32.03
2019-02-09T02:25:24.055Z,27.63
2019-02-09T02:27:52.451Z,28.20
2019-02-09T02:30:29.195Z,27.97
2019-02-09T02:32:57.587Z,24.37
2019-02-09T02:35:25.975Z,25.63
2019-02-09T02:37:54.426Z,22.97
2019-02-09T02:40:23.458Z,23.40
2019-02-09T02:42:51.852Z,23.30
2019-02-09T02:45:24.622Z,22.07
2019-02-09T02:47:53.026Z,25.67
2019-02-09T02:50:23.756Z,30.30
2019-02-09T02:52:52.188Z,37.47
2019-02-09T02:55:22.515Z,39.27
2019-02-09T02:57:51.840Z,37.17
2019-02-09T03:00:32.888Z,31.00
2019-02-09T03:03:01.732Z,26.37
2019-02-09T03:05:30.280Z,25.20
2019-02-09T03:07:59.746Z,24.83
2019-02-09T03:10:28.133Z,23.50
2019-02-09T03:12:56.556Z,23.53
2019-02-09T03:15:27.672Z,23.60
2019-02-09T03:17:56.059Z,22.93
2019-02-09T03:20:24.479Z,21.03
2019-02-09T03:22:52.899Z,22.30
2019-02-09T03:25:35.247Z,22.80
2019-02-09T03:28:03.667Z,22.30
2019-02-09T03:30:45.854Z,20.67
2019-02-09T03:33:02.113Z,21.87
2019-02-09T03:35:30.723Z,21.53
2019-02-09T03:37:59.118Z,26.00
2019-02-09T03:40:28.360Z,28.43
2019-02-09T03:42:56.952Z,27.73
2019-02-09T03:45:33.052Z,26.83
2019-02-09T03:48:01.837Z,27.37
2019-02-09T03:50:31.671Z,25.53
2019-02-09T03:53:00.289Z,24.07
2019-02-09T03:55:28.711Z,24.13
2019-02-09T03:57:57.111Z,24.23
2019-02-09T04:00:28.113Z,24.97
2019-02-09T04:02:56.540Z,23.77
2019-02-09T04:05:24.935Z,24.47
2019-02-09T04:07:53.400Z,27.60
2019-02-09T04:10:26.805Z,24.73
2019-02-09T04:12:55.204Z,28.80
2019-02-09T04:15:25.355Z,32.30
2019-02-09T04:17:54.114Z,30.97
2019-02-09T04:20:24.134Z,28.07
2019-02-09T04:22:52.618Z,25.33
2019-02-09T04:25:22.180Z,27.30
2019-02-09T04:27:50.727Z,24.97
2019-02-09T04:30:23.816Z,27.23
2019-02-09T04:32:52.355Z,25.57
2019-02-09T04:35:20.977Z,26.43
2019-02-09T04:37:49.471Z,26.00
2019-02-09T04:40:21.072Z,22.67
2019-02-09T04:42:49.472Z,23.73
2019-02-09T04:45:19.785Z,23.33
2019-02-09T04:47:48.280Z,21.57
2019-02-09T04:50:17.335Z,21.20
2019-02-09T04:52:45.723Z,22.23
2019-02-09T04:55:19.771Z,25.03
2019-02-09T04:57:48.214Z,22.40
2019-02-09T05:00:22.160Z,23.90
2019-02-09T05:02:50.648Z,27.60
2019-02-09T05:05:19.061Z,37.30
2019-02-09T05:07:47.454Z,36.97
2019-02-09T05:10:18.839Z,33.27
2019-02-09T05:12:47.822Z,29.20
2019-02-09T05:15:18.158Z,29.03
2019-02-09T05:17:46.584Z,24.47
2019-02-09T05:20:17.988Z,25.10
2019-02-09T05:22:46.672Z,25.87
2019-02-09T05:25:15.571Z,25.23
2019-02-09T05:27:44.429Z,26.90
2019-02-09T05:30:24.351Z,26.03
2019-02-09T05:32:53.484Z,24.13
2019-02-09T05:35:21.937Z,23.80
2019-02-09T05:37:50.367Z,24.63
2019-02-09T05:40:21.370Z,25.57
2019-02-09T05:42:49.794Z,25.50
2019-02-09T05:45:24.086Z,26.47
2019-02-09T05:47:52.486Z,28.57
2019-02-09T05:50:20.964Z,25.83
2019-02-09T05:52:49.459Z,26.53
2019-02-09T05:55:18.788Z,28.85
2019-02-09T05:57:47.181Z,27.83
2019-02-09T06:00:28.975Z,29.13
2019-02-09T06:02:57.372Z,29.53
2019-02-09T06:05:25.843Z,32.40
2019-02-09T06:07:54.285Z,47.83
2019-02-09T06:10:22.679Z,43.03
2019-02-09T06:12:51.076Z,44.40
2019-02-09T06:15:22.156Z,47.50
2019-02-09T06:17:50.711Z,45.80
2019-02-09T06:20:26.581Z,47.10
2019-02-09T06:22:55.035Z,55.33
2019-02-09T06:25:23.567Z,77.37
2019-02-09T06:27:52.053Z,77.27
2019-02-09T06:30:29.342Z,52.47
2019-02-09T06:32:57.790Z,46.30
2019-02-09T06:35:43.820Z,43.20
2019-02-09T06:38:12.272Z,44.73
2019-02-09T06:40:40.667Z,47.47
2019-02-09T06:43:09.260Z,52.07
2019-02-09T06:45:37.771Z,55.47
2019-02-09T06:48:18.208Z,60.30
2019-02-09T06:50:46.747Z,69.20
2019-02-09T06:53:15.315Z,75.30
2019-02-09T06:55:43.721Z,82.13
2019-02-09T06:58:12.352Z,82.43
2019-02-09T07:00:40.744Z,76.27
2019-02-09T07:03:09.781Z,76.13
2019-02-09T07:05:38.265Z,75.30
2019-02-09T07:08:06.736Z,72.03
2019-02-09T07:10:35.198Z,73.67
2019-02-09T07:13:03.719Z,74.90
2019-02-09T07:15:36.692Z,92.60
2019-02-09T07:18:07.090Z,94.30
2019-02-09T07:20:35.799Z,76.87
2019-02-09T07:23:05.368Z,85.47
2019-02-09T07:25:34.061Z,77.17
2019-02-09T07:28:06.434Z,77.83
2019-02-09T07:30:36.560Z,72.03
2019-02-09T07:33:07.101Z,74.10
2019-02-09T07:35:35.482Z,71.63
2019-02-09T07:38:04.213Z,71.97
2019-02-09T07:40:32.680Z,71.80
2019-02-09T07:43:01.595Z,74.40
2019-02-09T07:45:32.591Z,66.83
2019-02-09T07:48:01.018Z,64.93
2019-02-09T07:50:29.713Z,66.20
2019-02-09T07:52:58.649Z,68.23
2019-02-09T07:55:27.264Z,78.57
2019-02-09T07:57:55.829Z,77.57
2019-02-09T08:00:29.922Z,70.10
2019-02-09T08:03:00.401Z,61.63
2019-02-09T08:05:30.240Z,15.80
2019-02-09T08:07:59.158Z,12.03
2019-02-09T08:10:32.782Z,12.50
2019-02-09T08:13:02.452Z,13.13
2019-02-09T08:15:32.141Z,13.03
2019-02-09T08:18:01.173Z,11.67
2019-02-09T08:20:32.276Z,12.00
2019-02-09T08:23:06.108Z,12.30
2019-02-09T08:25:36.936Z,10.73
2019-02-09T08:28:07.471Z,11.77
2019-02-09T08:30:47.085Z,12.77
2019-02-09T08:33:15.848Z,12.03
2019-02-09T08:35:44.397Z,12.37
2019-02-09T08:38:15.021Z,13.60
2019-02-09T08:40:43.580Z,12.67
2019-02-09T08:43:12.048Z,12.47
2019-02-09T08:45:40.490Z,13.83
2019-02-09T08:48:09.268Z,13.10
2019-02-09T08:50:40.750Z,14.97
2019-02-09T08:53:09.413Z,12.53
2019-02-09T08:55:37.844Z,16.40
2019-02-09T08:58:06.458Z,18.77
2019-02-09T09:00:36.447Z,19.10
2019-02-09T09:03:05.479Z,23.53
2019-02-09T09:05:34.288Z,33.17
2019-02-09T09:08:02.696Z,33.90
2019-02-09T09:10:31.929Z,20.97
2019-02-09T09:13:00.956Z,13.13
2019-02-09T09:15:38.406Z,14.70
2019-02-09T09:18:07.410Z,23.13
2019-02-09T09:20:42.919Z,12.47
2019-02-09T09:23:11.588Z,13.10
2019-02-09T09:25:40.044Z,13.80
2019-02-09T09:28:08.638Z,13.97
2019-02-09T09:30:37.632Z,12.63
2019-02-09T09:33:06.161Z,12.77
2019-02-09T09:35:35.177Z,9.30
2019-02-09T09:38:04.027Z,10.73
2019-02-09T09:40:35.124Z,10.77
2019-02-09T09:43:05.508Z,10.27
2019-02-09T09:45:42.714Z,22.30
2019-02-09T09:48:13.745Z,13.97
2019-02-09T09:50:42.130Z,9.57
2019-02-09T09:53:10.533Z,10.40
2019-02-09T09:55:39.604Z,10.83
2019-02-09T09:58:08.277Z,11.77
2019-02-09T10:00:37.000Z,9.80
2019-02-09T10:03:05.421Z,11.20
2019-02-09T10:05:34.058Z,12.07
2019-02-09T10:08:02.679Z,13.10
2019-02-09T10:10:31.103Z,12.57
2019-02-09T10:12:59.504Z,12.43
2019-02-09T10:15:28.627Z,12.23
2019-02-09T10:17:57.347Z,11.90
2019-02-09T10:20:27.268Z,14.33
2019-02-09T10:22:57.038Z,13.30
2019-02-09T10:25:25.784Z,11.13
2019-02-09T10:27:56.133Z,10.70
2019-02-09T10:30:27.316Z,11.17
2019-02-09T10:32:55.938Z,11.27
2019-02-09T10:35:24.632Z,11.50
2019-02-09T10:37:53.043Z,10.43
2019-02-09T10:40:29.458Z,11.50
2019-02-09T10:42:58.308Z,10.93
2019-02-09T10:45:31.314Z,10.67
2019-02-09T10:48:01.484Z,11.47
2019-02-09T10:50:35.424Z,11.37
2019-02-09T10:53:04.089Z,10.00
2019-02-09T10:55:33.017Z,9.50
2019-02-09T10:58:01.875Z,11.27
2019-02-09T11:00:39.231Z,9.00
2019-02-09T11:03:08.398Z,10.23
2019-02-09T11:05:36.843Z,9.40
2019-02-09T11:08:05.873Z,8.43
2019-02-09T11:10:34.713Z,9.03
2019-02-09T11:13:03.093Z,9.30
2019-02-09T11:15:31.512Z,10.00
2019-02-09T11:18:00.115Z,8.47
2019-02-09T11:20:28.523Z,8.57
2019-02-09T11:22:57.113Z,8.90
2019-02-09T11:25:26.783Z,9.93
2019-02-09T11:27:55.115Z,9.47
2019-02-09T11:30:26.291Z,10.63
2019-02-09T11:33:01.561Z,11.87
2019-02-09T11:35:24.786Z,10.30
2019-02-09T11:37:53.369Z,9.73
2019-02-09T11:40:26.900Z,19.77
2019-02-09T11:42:55.972Z,12.10
2019-02-09T11:45:27.293Z,8.77
2019-02-09T11:47:56.047Z,8.67
2019-02-09T11:50:24.733Z,24.17
2019-02-09T11:52:53.678Z,9.63
2019-02-09T11:55:22.354Z,9.73
2019-02-09T11:57:51.367Z,8.97
2019-02-09T12:00:25.316Z,8.60
2019-02-09T12:02:53.870Z,7.70
2019-02-09T12:05:22.435Z,8.13
2019-02-09T12:07:51.075Z,8.57
2019-02-09T12:10:21.472Z,8.57
2019-02-09T12:12:50.069Z,8.57
2019-02-09T12:15:25.009Z,9.40
2019-02-09T12:17:56.394Z,9.00
2019-02-09T12:20:26.303Z,8.97
2019-02-09T12:22:56.603Z,7.37
2019-02-09T12:25:27.436Z,7.53
2019-02-09T12:27:57.199Z,7.77
2019-02-09T12:30:28.291Z,10.57
2019-02-09T12:32:56.864Z,10.47
2019-02-09T12:35:25.372Z,11.27
2019-02-09T12:37:54.218Z,10.40
2019-02-09T12:40:28.115Z,8.80
2019-02-09T12:42:56.785Z,10.40
2019-02-09T12:45:26.832Z,13.63
2019-02-09T12:47:55.310Z,14.73
2019-02-09T12:50:26.154Z,17.87
2019-02-09T12:52:55.223Z,19.07
2019-02-09T12:55:23.628Z,14.27
2019-02-09T12:57:52.271Z,14.60
2019-02-09T13:00:26.942Z,13.20
2019-02-09T13:02:56.837Z,9.30
2019-02-09T13:05:25.900Z,10.17
2019-02-09T13:07:54.539Z,9.07
2019-02-09T13:10:23.370Z,9.40
2019-02-09T13:12:51.703Z,8.83
2019-02-09T13:15:25.510Z,8.30
2019-02-09T13:17:53.982Z,8.50
2019-02-09T13:20:27.984Z,8.07
2019-02-09T13:22:56.776Z,9.30
2019-02-09T13:25:25.466Z,11.87
2019-02-09T13:27:54.052Z,17.60
2019-02-09T13:30:34.710Z,14.27
2019-02-09T13:33:03.272Z,24.33
2019-02-09T13:35:31.921Z,15.67
2019-02-09T13:38:00.487Z,18.10
2019-02-09T13:40:29.361Z,18.23
2019-02-09T13:42:59.075Z,21.37
2019-02-09T13:45:33.235Z,19.47
2019-02-09T13:48:01.816Z,12.37
2019-02-09T13:50:31.850Z,9.93
2019-02-09T13:53:00.513Z,5.73
2019-02-09T13:55:29.217Z,6.13
2019-02-09T13:57:57.644Z,6.20
2019-02-09T14:00:28.082Z,8.53
2019-02-09T14:02:57.668Z,5.43
2019-02-09T14:05:29.038Z,5.97
2019-02-09T14:07:58.156Z,5.83
2019-02-09T14:10:27.578Z,7.23
2019-02-09T14:12:56.399Z,4.77
2019-02-09T14:15:38.599Z,4.70
2019-02-09T14:18:09.997Z,6.00
2019-02-09T14:20:38.556Z,6.93
2019-02-09T14:23:08.164Z,6.50
2019-02-09T14:25:36.571Z,5.63
2019-02-09T14:28:07.001Z,5.23
2019-02-09T14:30:38.978Z,5.30
2019-02-09T14:33:09.483Z,6.20
2019-02-09T14:35:38.564Z,5.37
2019-02-09T14:38:07.119Z,5.63
2019-02-09T14:40:35.827Z,6.97
2019-02-09T14:43:05.647Z,5.77
2019-02-09T14:45:36.869Z,7.10
2019-02-09T14:48:05.308Z,4.77
2019-02-09T14:50:33.745Z,6.20
2019-02-09T14:53:02.664Z,5.87
2019-02-09T14:55:33.168Z,5.70
2019-02-09T14:58:03.667Z,5.23
2019-02-09T15:00:49.794Z,5.37
2019-02-09T15:03:25.770Z,7.03
2019-02-09T15:05:48.633Z,6.10
2019-02-09T15:08:17.095Z,8.27
2019-02-09T15:10:45.907Z,9.50
2019-02-09T15:13:14.752Z,5.87
2019-02-09T15:15:55.750Z,5.63
2019-02-09T15:18:24.162Z,6.43
2019-02-09T15:21:02.127Z,7.10
2019-02-09T15:23:31.607Z,9.20
2019-02-09T15:26:00.186Z,9.00
2019-02-09T15:28:33.019Z,8.60
2019-02-09T15:31:10.263Z,9.27
2019-02-09T15:33:43.048Z,7.57
2019-02-09T15:36:15.773Z,8.33
2019-02-09T15:38:50.752Z,9.27
2019-02-09T15:41:20.530Z,8.13
2019-02-09T15:43:51.481Z,7.37
2019-02-09T15:46:20.404Z,11.27
2019-02-09T15:48:49.536Z,7.70
2019-02-09T15:51:22.153Z,7.43
2019-02-09T15:53:51.642Z,40.53
2019-02-09T15:56:21.154Z,16.60
2019-02-09T15:58:50.595Z,21.40
2019-02-09T16:01:20.297Z,85.47
2019-02-09T16:03:52.274Z,32.63
2019-02-09T16:06:21.957Z,12.63
2019-02-09T16:08:51.326Z,12.60
2019-02-09T16:11:19.780Z,17.17
2019-02-09T16:13:49.923Z,18.17
2019-02-09T16:16:20.451Z,25.83
2019-02-09T16:18:51.312Z,23.53
2019-02-09T16:21:20.662Z,26.90
2019-02-09T16:23:49.722Z,23.13
2019-02-09T16:26:22.639Z,45.80
2019-02-09T16:28:51.465Z,22.17
2019-02-09T16:31:20.754Z,15.73
2019-02-09T16:33:51.438Z,33.67
2019-02-09T16:36:20.729Z,17.73
2019-02-09T16:38:50.273Z,20.40
2019-02-09T16:41:20.092Z,23.47
2019-02-09T16:43:48.970Z,18.83
2019-02-09T16:46:17.876Z,17.37
2019-02-09T16:48:48.142Z,13.00
2019-02-09T16:51:16.708Z,17.50
2019-02-09T16:53:45.533Z,9.73
2019-02-09T16:56:14.246Z,12.50
2019-02-09T16:58:42.796Z,13.43
2019-02-09T17:01:12.090Z,57.47
2019-02-09T17:03:44.619Z,21.23
2019-02-09T17:06:13.568Z,18.53
2019-02-09T17:08:44.422Z,30.33
2019-02-09T17:11:13.656Z,30.63
2019-02-09T17:13:42.460Z,19.23
2019-02-09T17:16:11.120Z,15.83
2019-02-09T17:18:39.924Z,16.87
2019-02-09T17:21:09.376Z,22.27
2019-02-09T17:23:42.593Z,7.60
2019-02-09T17:26:15.660Z,15.70
2019-02-09T17:28:47.532Z,9.77
2019-02-09T17:31:15.983Z,18.23
2019-02-09T17:34:06.080Z,12.63
2019-02-09T17:36:36.118Z,14.47
2019-02-09T17:39:06.657Z,29.13
2019-02-09T17:41:35.339Z,19.43
2019-02-09T17:44:04.177Z,32.87
2019-02-09T17:46:32.666Z,45.07
2019-02-09T17:49:01.242Z,13.77
2019-02-09T17:51:30.049Z,13.00
2019-02-09T17:53:58.738Z,25.50
2019-02-09T17:56:27.741Z,36.87
2019-02-09T17:58:56.459Z,28.80
2019-02-09T18:01:24.931Z,61.03
2019-02-09T18:03:55.339Z,59.53
2019-02-09T18:06:24.425Z,56.37
2019-02-09T18:09:17.518Z,47.37
2019-02-09T18:11:49.270Z,82.93
2019-02-09T18:14:18.090Z,97.67
2019-02-09T18:16:46.620Z,75.13
2019-02-09T18:19:15.680Z,74.50
2019-02-09T18:21:45.784Z,79.50
2019-02-09T18:24:14.885Z,47.10
2019-02-09T18:26:43.816Z,36.97
2019-02-09T18:29:12.668Z,35.03
2019-02-09T18:31:41.253Z,49.20
2019-02-09T18:34:11.868Z,39.87
2019-02-09T18:36:40.391Z,41.67
2019-02-09T18:39:11.062Z,38.47
2019-02-09T18:41:39.892Z,43.13
2019-02-09T18:44:08.557Z,94.97
2019-02-09T18:46:37.599Z,125.30
2019-02-09T18:49:06.329Z,76.43
2019-02-09T18:51:41.735Z,24.90
2019-02-09T18:54:11.363Z,26.23
2019-02-09T18:56:40.932Z,25.53
2019-02-09T18:59:10.266Z,44.80
2019-02-09T19:01:39.087Z,37.53
2019-02-09T19:04:08.013Z,18.00
2019-02-09T19:06:37.574Z,21.87
2019-02-09T19:09:07.179Z,131.87
2019-02-09T19:11:35.722Z,51.70
2019-02-09T19:14:05.316Z,51.63
2019-02-09T19:16:34.101Z,24.07
2019-02-09T19:19:03.409Z,20.83
2019-02-09T19:21:32.568Z,21.00
2019-02-09T19:27:03.670Z,15.70
2019-02-09T19:29:36.141Z,12.70
2019-02-09T19:38:07.207Z,88.23
2019-02-09T19:40:39.228Z,56.77
2019-02-09T19:43:09.005Z,41.67
2019-02-09T19:45:41.259Z,48.37
2019-02-09T19:48:20.763Z,67.67
2019-02-09T19:53:39.451Z,86.13
2019-02-09T19:56:08.751Z,86.07
2019-02-09T19:58:37.355Z,81.27
2019-02-09T20:01:06.263Z,75.93
2019-02-09T20:03:42.507Z,86.87
2019-02-09T20:06:11.481Z,82.63
2019-02-09T20:08:40.306Z,76.27
2019-02-09T20:11:09.053Z,85.03
2019-02-09T20:13:37.804Z,76.60
2019-02-09T20:16:06.633Z,80.87
2019-02-09T20:18:52.719Z,81.87
2019-02-09T20:21:21.871Z,100.63
2019-02-09T20:23:50.645Z,95.43
2019-02-09T20:26:20.377Z,95.87
2019-02-09T20:28:48.808Z,100.50
2019-02-09T20:31:18.842Z,96.83
2019-02-09T20:33:47.613Z,100.37
2019-02-09T20:36:16.472Z,101.10
2019-02-09T20:38:45.108Z,55.23
2019-02-09T20:41:33.543Z,20.47
2019-02-09T20:44:03.617Z,13.97
2019-02-09T20:46:33.326Z,16.03
2019-02-09T20:49:02.753Z,13.03
2019-02-09T20:51:32.457Z,11.60
2019-02-09T20:54:00.953Z,13.13
2019-02-09T20:56:30.917Z,14.00
2019-02-09T20:58:59.768Z,14.73
2019-02-09T21:01:29.122Z,11.93
2019-02-09T21:03:58.226Z,12.53
2019-02-09T21:06:27.018Z,12.53
2019-02-09T21:08:55.563Z,12.77
2019-02-09T21:11:26.372Z,12.23
2019-02-09T21:13:54.506Z,13.33
2019-02-09T21:16:22.988Z,12.47
2019-02-09T21:18:51.501Z,11.57
2019-02-09T21:21:20.150Z,11.20
2019-02-09T21:23:48.627Z,11.43
2019-02-09T21:26:17.397Z,12.37
2019-02-09T21:28:49.651Z,11.10
2019-02-09T21:31:21.749Z,12.63
2019-02-09T21:33:50.541Z,18.10
2019-02-09T21:36:19.425Z,22.20
2019-02-09T21:38:47.872Z,22.53
2019-02-09T21:41:16.384Z,16.23
2019-02-09T21:43:46.184Z,12.67
2019-02-09T21:46:14.995Z,11.87
2019-02-09T21:48:44.083Z,11.97
2019-02-09T21:51:12.747Z,14.57
2019-02-09T21:53:41.883Z,13.27
2019-02-09T21:56:10.605Z,14.47
2019-02-09T21:58:39.122Z,14.90
2019-02-09T22:01:07.727Z,19.00
2019-02-09T22:03:36.070Z,15.20
2019-02-09T22:06:04.733Z,22.73
2019-02-09T22:08:33.436Z,33.20
2019-02-09T22:11:01.881Z,14.43
2019-02-09T22:13:30.646Z,14.50
2019-02-09T22:15:59.402Z,14.27
2019-02-09T22:18:27.879Z,16.80
2019-02-09T22:20:56.708Z,13.10
2019-02-09T22:23:25.179Z,15.33
2019-02-09T22:25:53.629Z,15.00
2019-02-09T22:28:22.521Z,30.50
2019-02-09T22:30:51.140Z,17.63
2019-02-09T22:33:24.642Z,25.33
2019-02-09T22:35:50.237Z,19.17
2019-02-09T22:38:18.619Z,25.73
2019-02-09T22:40:47.072Z,12.53
2019-02-09T22:43:15.742Z,19.50
2019-02-09T22:45:45.327Z,17.97
2019-02-09T22:48:13.854Z,15.80
2019-02-09T22:50:45.971Z,23.70
2019-02-09T22:53:14.627Z,11.97
2019-02-09T22:55:43.123Z,11.63
2019-02-09T22:58:11.599Z,10.83
2019-02-09T23:00:52.975Z,11.17
2019-02-09T23:03:24.571Z,10.40
2019-02-09T23:06:14.369Z,11.83
2019-02-09T23:08:54.461Z,12.17
2019-02-09T23:11:22.923Z,11.33
2019-02-09T23:13:51.308Z,10.10
2019-02-09T23:16:19.832Z,11.20
2019-02-09T23:18:50.936Z,10.93
2019-02-09T23:21:19.679Z,11.40
2019-02-09T23:23:48.137Z,11.57
2019-02-09T23:26:16.648Z,12.43
2019-02-09T23:28:45.036Z,12.63
2019-02-09T23:31:13.628Z,13.60
2019-02-09T23:33:42.052Z,12.77
2019-02-09T23:36:16.188Z,13.47
2019-02-09T23:38:40.679Z,12.23
2019-02-09T23:41:09.109Z,12.30
2019-02-09T23:43:37.527Z,10.97
2019-02-09T23:46:07.288Z,12.30
2019-02-09T23:48:35.710Z,12.53
2019-02-09T23:51:04.123Z,13.00
2019-02-09T23:53:32.494Z,14.93
2019-02-09T23:56:00.916Z,21.40
2019-02-09T23:58:29.314Z,21.70
